Аэропорт: Сокол. Магадан

ICAO: UHMM

METAR:
2021-04-21 20:00:00
UHMM 212000Z 10004MPS 3200 -SHSN VV006 M00/M01 Q1020 R10/1049 RMK MT OBSC QFE750 R28/12003MPS
METAR:
2021-04-21 16:59:00
TAF COR UHMM 211659Z 2118/2224 11003G08MPS 6000 -SHSN OVC020CB TEMPO 2118/2203 2000 SHSN VV007 FM220300 10003MPS 9999 BKN025CB FM221500 11003G08MPS 4000 -SHSNRA BR SCT011 OVC020CB TEMPO 2215/2224 1000 SHSNRA BR VV006